createdAt,value
2019-05-22T00:00:49.862Z,11.50
2019-05-22T00:03:21.326Z,11.50
2019-05-22T00:05:50.294Z,11.40
2019-05-22T00:08:19.445Z,11.40
2019-05-22T00:10:49.671Z,11.40
2019-05-22T00:13:19.955Z,11.40
2019-05-22T00:15:48.435Z,11.40
2019-05-22T00:18:18.213Z,11.40
2019-05-22T00:20:46.785Z,11.40
2019-05-22T00:23:15.403Z,11.40
2019-05-22T00:25:43.760Z,11.40
2019-05-22T00:28:12.580Z,11.40
2019-05-22T00:30:44.331Z,11.40
2019-05-22T00:33:12.395Z,11.30
2019-05-22T00:35:41.946Z,11.30
2019-05-22T00:38:11.607Z,11.30
2019-05-22T00:40:44.673Z,11.30
2019-05-22T00:43:14.465Z,11.30
2019-05-22T00:45:43.076Z,11.30
2019-05-22T00:48:11.434Z,11.20
2019-05-22T00:50:44.934Z,11.20
2019-05-22T00:53:30.574Z,11.20
2019-05-22T00:56:23.127Z,11.20
2019-05-22T00:58:58.078Z,11.20
2019-05-22T01:01:32.457Z,11.20
2019-05-22T01:04:02.102Z,11.30
2019-05-22T01:06:30.461Z,11.20
2019-05-22T01:08:59.975Z,11.20
2019-05-22T01:11:29.410Z,11.20
2019-05-22T01:13:57.281Z,11.20
2019-05-22T01:16:27.115Z,11.20
2019-05-22T01:18:55.057Z,11.20
2019-05-22T01:21:24.685Z,11.20
2019-05-22T01:23:53.457Z,11.20
2019-05-22T01:26:22.293Z,11.20
2019-05-22T01:28:50.231Z,11.20
2019-05-22T01:31:24.693Z,11.20
2019-05-22T01:34:00.123Z,11.20
2019-05-22T01:36:44.576Z,11.20
2019-05-22T01:39:20.876Z,11.10
2019-05-22T01:41:50.364Z,11.10
2019-05-22T01:44:18.943Z,11.00
2019-05-22T01:46:46.855Z,11.10
2019-05-22T01:49:14.785Z,11.00
2019-05-22T01:51:42.699Z,11.00
2019-05-22T01:54:11.281Z,11.00
2019-05-22T01:56:39.627Z,11.00
2019-05-22T01:59:08.342Z,11.00
2019-05-22T02:01:36.261Z,11.00
2019-05-22T02:04:05.781Z,11.00
2019-05-22T02:06:34.059Z,11.00
2019-05-22T02:09:03.606Z,11.00
2019-05-22T02:11:33.389Z,11.00
2019-05-22T02:14:02.214Z,11.00
2019-05-22T02:16:30.614Z,10.90
2019-05-22T02:18:58.627Z,10.90
2019-05-22T02:21:26.781Z,10.90
2019-05-22T02:23:56.305Z,10.90
2019-05-22T02:26:24.614Z,10.80
2019-05-22T02:28:52.900Z,10.80
2019-05-22T02:31:23.299Z,10.80
2019-05-22T02:34:06.835Z,10.70
2019-05-22T02:36:36.631Z,10.70
2019-05-22T02:39:05.200Z,10.70
2019-05-22T02:41:34.749Z,10.70
2019-05-22T02:44:03.379Z,10.70
2019-05-22T02:46:31.945Z,10.70
2019-05-22T02:49:01.576Z,10.70
2019-05-22T02:51:29.870Z,10.70
2019-05-22T02:53:57.863Z,10.70
2019-05-22T02:56:25.890Z,10.70
2019-05-22T02:58:55.586Z,10.70
2019-05-22T03:01:24.314Z,10.70
2019-05-22T03:03:52.482Z,10.70
2019-05-22T03:06:21.498Z,10.70
2019-05-22T03:08:49.452Z,10.70
2019-05-22T03:11:19.447Z,10.70
2019-05-22T03:13:47.431Z,10.80
2019-05-22T03:16:15.410Z,10.80
2019-05-22T03:18:44.282Z,10.80
2019-05-22T03:21:12.251Z,10.80
2019-05-22T03:23:40.221Z,10.90
2019-05-22T03:26:09.651Z,10.80
2019-05-22T03:28:38.811Z,10.80
2019-05-22T03:31:07.009Z,10.80
2019-05-22T03:33:35.687Z,10.90
2019-05-22T03:36:05.382Z,10.90
2019-05-22T03:38:34.390Z,10.90
2019-05-22T03:41:03.493Z,10.90
2019-05-22T03:43:31.926Z,10.90
2019-05-22T03:46:00.633Z,10.90
2019-05-22T03:48:28.618Z,10.80
2019-05-22T03:50:56.970Z,10.80
2019-05-22T03:53:24.921Z,10.90
2019-05-22T03:55:53.503Z,10.90
2019-05-22T03:58:22.186Z,10.90
2019-05-22T04:00:50.537Z,10.90
2019-05-22T04:03:19.593Z,10.90
2019-05-22T04:05:48.695Z,10.90
2019-05-22T04:08:17.332Z,10.90
2019-05-22T04:10:46.695Z,10.90
2019-05-22T04:13:16.009Z,10.90
2019-05-22T04:15:45.065Z,11.00
2019-05-22T04:18:14.741Z,11.00
2019-05-22T04:20:42.721Z,11.00
2019-05-22T04:23:10.885Z,11.00
2019-05-22T04:25:38.842Z,11.00
2019-05-22T04:28:07.042Z,11.00
2019-05-22T04:30:35.138Z,11.00
2019-05-22T04:33:03.254Z,11.00
2019-05-22T04:35:32.434Z,11.00
2019-05-22T04:38:00.421Z,11.00
2019-05-22T04:40:29.118Z,11.00
2019-05-22T04:42:58.097Z,11.00
2019-05-22T04:45:26.758Z,11.10
2019-05-22T04:47:55.098Z,11.10
2019-05-22T04:50:23.287Z,11.10
2019-05-22T04:52:51.539Z,11.10
2019-05-22T04:55:19.900Z,11.10
2019-05-22T04:57:48.282Z,11.10
2019-05-22T05:00:16.622Z,11.10
2019-05-22T05:02:44.732Z,11.10
2019-05-22T05:05:13.246Z,11.20
2019-05-22T05:07:41.796Z,11.20
2019-05-22T05:10:10.086Z,11.20
2019-05-22T05:12:39.756Z,11.20
2019-05-22T05:15:07.894Z,11.20
2019-05-22T05:17:36.511Z,11.20
2019-05-22T05:20:04.519Z,11.30
2019-05-22T05:22:35.801Z,11.30
2019-05-22T05:25:03.802Z,11.30
2019-05-22T05:27:31.969Z,11.30
2019-05-22T05:30:00.046Z,11.30
2019-05-22T05:32:28.071Z,11.30
2019-05-22T05:34:55.987Z,11.30
2019-05-22T05:37:24.976Z,11.30
2019-05-22T05:39:52.893Z,11.40
2019-05-22T05:42:20.844Z,11.40
2019-05-22T05:44:48.767Z,11.40
2019-05-22T05:47:16.678Z,11.50
2019-05-22T05:49:44.685Z,11.50
2019-05-22T05:52:13.268Z,11.60
2019-05-22T05:54:41.704Z,11.60
2019-05-22T05:57:09.697Z,11.50
2019-05-22T05:59:37.704Z,11.60
2019-05-22T06:02:06.407Z,11.70
2019-05-22T06:04:35.435Z,11.70
2019-05-22T06:07:04.306Z,11.70
2019-05-22T06:09:32.477Z,11.70
2019-05-22T06:12:05.199Z,11.70
2019-05-22T06:14:32.187Z,11.80
2019-05-22T06:17:01.790Z,11.80
2019-05-22T06:19:29.906Z,11.80
2019-05-22T06:21:58.302Z,11.80
2019-05-22T06:24:27.993Z,11.80
2019-05-22T06:26:56.001Z,11.80
2019-05-22T06:29:27.875Z,11.90
2019-05-22T06:31:54.210Z,11.90
2019-05-22T06:34:22.636Z,11.90
2019-05-22T06:36:50.679Z,11.90
2019-05-22T06:39:19.665Z,11.90
2019-05-22T06:41:47.567Z,11.90
2019-05-22T06:44:15.846Z,11.90
2019-05-22T06:46:43.795Z,11.90
2019-05-22T06:49:11.932Z,12.00
2019-05-22T06:51:39.885Z,12.00
2019-05-22T06:54:07.799Z,12.10
2019-05-22T06:56:35.677Z,12.10
2019-05-22T06:59:03.589Z,12.20
2019-05-22T07:01:31.496Z,12.20
2019-05-22T07:03:59.660Z,12.30
2019-05-22T07:06:27.974Z,12.30
2019-05-22T07:08:55.848Z,12.40
2019-05-22T07:11:23.731Z,12.40
2019-05-22T07:13:51.764Z,12.40
2019-05-22T07:16:19.759Z,12.50
2019-05-22T07:18:48.466Z,12.50
2019-05-22T07:21:16.412Z,12.50
2019-05-22T07:23:44.304Z,12.50
2019-05-22T07:26:12.285Z,12.50
2019-05-22T07:28:40.299Z,12.50
2019-05-22T07:31:08.584Z,12.50
2019-05-22T07:33:37.157Z,12.50
2019-05-22T07:36:10.081Z,12.50
2019-05-22T07:38:35.759Z,12.50
2019-05-22T07:41:03.728Z,12.50
2019-05-22T07:43:32.237Z,12.50
2019-05-22T07:46:01.299Z,12.60
2019-05-22T07:48:30.183Z,12.60
2019-05-22T07:50:58.199Z,12.60
2019-05-22T07:53:26.143Z,12.60
2019-05-22T07:55:54.789Z,12.60
2019-05-22T07:58:23.002Z,12.70
2019-05-22T08:00:56.665Z,12.70
2019-05-22T08:03:25.099Z,12.70
2019-05-22T08:05:53.089Z,12.80
2019-05-22T08:08:21.038Z,12.70
2019-05-22T08:10:48.930Z,12.70
2019-05-22T08:13:16.859Z,12.70
2019-05-22T08:15:47.920Z,12.70
2019-05-22T08:18:14.397Z,12.70
2019-05-22T08:20:42.386Z,12.80
2019-05-22T08:23:10.561Z,12.80
2019-05-22T08:25:38.537Z,12.90
2019-05-22T08:28:06.734Z,12.90
2019-05-22T08:30:34.726Z,13.00
2019-05-22T08:33:03.280Z,13.10
2019-05-22T08:35:31.635Z,13.10
2019-05-22T08:38:00.482Z,13.20
2019-05-22T08:40:28.960Z,13.20
2019-05-22T08:42:56.855Z,13.20
2019-05-22T08:45:24.946Z,13.20
2019-05-22T08:47:52.997Z,13.20
2019-05-22T08:50:22.622Z,13.30
2019-05-22T08:52:51.393Z,13.30
2019-05-22T08:55:20.061Z,13.40
2019-05-22T08:57:47.967Z,13.50
2019-05-22T09:00:18.183Z,13.60
2019-05-22T09:02:46.061Z,13.70
2019-05-22T09:05:13.977Z,13.80
2019-05-22T09:07:41.991Z,14.00
2019-05-22T09:10:11.274Z,14.20
2019-05-22T09:12:39.281Z,14.30
2019-05-22T09:15:07.199Z,14.50
2019-05-22T09:17:35.155Z,14.50
2019-05-22T09:20:03.216Z,14.60
2019-05-22T09:22:40.560Z,14.60
2019-05-22T09:25:02.849Z,14.50
2019-05-22T09:27:31.375Z,14.60
2019-05-22T09:29:59.266Z,14.70
2019-05-22T09:32:27.148Z,14.80
2019-05-22T09:34:55.609Z,15.00
2019-05-22T09:37:23.582Z,15.20
2019-05-22T09:39:51.548Z,15.40
2019-05-22T09:42:19.733Z,15.70
2019-05-22T09:44:47.800Z,15.70
2019-05-22T09:47:16.169Z,15.70
2019-05-22T09:49:44.145Z,15.60
2019-05-22T09:52:12.222Z,15.60
2019-05-22T09:54:40.667Z,15.40
2019-05-22T09:57:08.905Z,15.30
2019-05-22T09:59:36.856Z,15.40
2019-05-22T10:02:05.309Z,15.50
2019-05-22T10:04:33.644Z,15.50
2019-05-22T10:07:01.602Z,15.60
2019-05-22T10:09:30.154Z,15.70
2019-05-22T10:11:58.070Z,16.00
2019-05-22T10:14:26.045Z,16.20
2019-05-22T10:16:54.256Z,16.30
2019-05-22T10:19:22.532Z,16.50
2019-05-22T10:21:51.459Z,16.60
2019-05-22T10:24:20.312Z,16.90
2019-05-22T10:26:48.641Z,17.10
2019-05-22T10:29:16.722Z,17.30
2019-05-22T10:31:44.651Z,17.30
2019-05-22T10:34:12.603Z,17.30
2019-05-22T10:36:43.077Z,17.30
2019-05-22T10:39:10.083Z,17.30
2019-05-22T10:41:38.391Z,17.30
2019-05-22T10:44:06.899Z,17.30
2019-05-22T10:46:34.989Z,17.30
2019-05-22T10:49:02.884Z,17.40
2019-05-22T10:51:30.754Z,17.50
2019-05-22T10:53:58.866Z,17.50
2019-05-22T10:56:27.009Z,17.60
2019-05-22T10:58:55.872Z,17.60
2019-05-22T11:01:24.077Z,17.60
2019-05-22T11:03:52.229Z,17.80
2019-05-22T11:06:20.188Z,17.80
2019-05-22T11:08:48.305Z,17.90
2019-05-22T11:11:16.711Z,17.90
2019-05-22T11:14:00.123Z,18.00
2019-05-22T11:16:14.324Z,18.20
2019-05-22T11:18:42.771Z,18.20
2019-05-22T11:21:11.628Z,18.30
2019-05-22T11:23:51.118Z,18.50
2019-05-22T11:26:09.348Z,18.50
2019-05-22T11:28:37.315Z,18.50
2019-05-22T11:31:06.871Z,18.70
2019-05-22T11:33:34.833Z,18.90
2019-05-22T11:36:03.483Z,18.70
2019-05-22T11:38:31.351Z,18.80
2019-05-22T11:41:00.100Z,18.80
2019-05-22T11:43:28.295Z,18.90
2019-05-22T11:45:56.171Z,18.80
2019-05-22T11:48:24.085Z,18.80
2019-05-22T11:50:52.877Z,18.90
2019-05-22T11:53:20.765Z,19.10
2019-05-22T11:55:48.729Z,19.10
2019-05-22T11:58:16.909Z,19.10
2019-05-22T12:00:45.147Z,19.20
2019-05-22T12:03:13.012Z,19.20
2019-05-22T12:05:41.470Z,19.50
2019-05-22T12:08:09.430Z,19.60
2019-05-22T12:10:38.134Z,19.70
2019-05-22T12:13:06.128Z,19.70
2019-05-22T12:15:35.176Z,19.70
2019-05-22T12:18:03.531Z,19.80
2019-05-22T12:20:31.573Z,19.70
2019-05-22T12:22:59.526Z,19.60
2019-05-22T12:25:27.865Z,19.70
2019-05-22T12:27:55.900Z,19.70
2019-05-22T12:30:23.803Z,19.80
2019-05-22T12:32:52.545Z,19.90
2019-05-22T12:35:20.806Z,20.00
2019-05-22T12:37:48.788Z,19.90
2019-05-22T12:40:17.281Z,20.10
2019-05-22T12:42:45.676Z,20.20
2019-05-22T12:45:13.693Z,20.30
2019-05-22T12:47:41.556Z,20.20
2019-05-22T12:50:10.398Z,20.30
2019-05-22T12:52:38.761Z,20.20
2019-05-22T12:55:07.467Z,20.20
2019-05-22T12:57:35.535Z,20.10
2019-05-22T13:00:04.822Z,20.20
2019-05-22T13:02:32.752Z,20.30
2019-05-22T13:05:00.660Z,20.20
2019-05-22T13:07:29.079Z,20.10
2019-05-22T13:09:57.425Z,20.00
2019-05-22T13:12:25.382Z,20.00
2019-05-22T13:15:08.217Z,20.10
2019-05-22T13:17:23.558Z,20.10
2019-05-22T13:19:51.523Z,20.20
2019-05-22T13:22:20.490Z,20.20
2019-05-22T13:24:48.485Z,20.10
2019-05-22T13:27:17.619Z,20.00
2019-05-22T13:29:45.843Z,20.00
2019-05-22T13:32:14.224Z,20.10
2019-05-22T13:34:42.141Z,20.20
2019-05-22T13:37:11.184Z,20.20
2019-05-22T13:39:39.145Z,20.10
2019-05-22T13:42:07.117Z,20.00
2019-05-22T13:44:35.107Z,19.80
2019-05-22T13:47:03.475Z,19.60
2019-05-22T13:49:32.988Z,19.50
2019-05-22T13:52:00.977Z,19.40
2019-05-22T13:54:29.523Z,19.40
2019-05-22T13:56:57.442Z,19.60
2019-05-22T13:59:25.415Z,19.80
2019-05-22T14:01:53.641Z,19.90
2019-05-22T14:04:21.596Z,20.10
2019-05-22T14:06:50.270Z,20.30
2019-05-22T14:09:21.432Z,20.40
2019-05-22T14:11:50.528Z,20.40
2019-05-22T14:14:18.517Z,20.50
2019-05-22T14:16:49.133Z,20.60
2019-05-22T14:19:16.164Z,20.80
2019-05-22T14:21:50.950Z,20.70
2019-05-22T14:24:13.810Z,20.70
2019-05-22T14:26:41.698Z,20.50
2019-05-22T14:29:09.699Z,20.70
2019-05-22T14:31:37.709Z,20.80
2019-05-22T14:34:05.647Z,20.90
2019-05-22T14:36:33.678Z,21.00
2019-05-22T14:39:01.543Z,21.30
2019-05-22T14:41:29.428Z,21.50
2019-05-22T14:43:57.787Z,21.50
2019-05-22T14:46:25.672Z,21.40
2019-05-22T14:48:53.994Z,21.10
2019-05-22T14:51:23.378Z,20.80
2019-05-22T14:53:52.152Z,20.80
2019-05-22T14:56:20.042Z,20.80
2019-05-22T14:58:48.367Z,21.00
2019-05-22T15:01:16.659Z,21.10
2019-05-22T15:03:44.740Z,21.10
2019-05-22T15:06:12.849Z,21.20
2019-05-22T15:08:40.948Z,21.30
2019-05-22T15:11:08.917Z,21.20
2019-05-22T15:13:36.960Z,21.00
2019-05-22T15:16:04.927Z,20.90
2019-05-22T15:18:32.868Z,20.50
2019-05-22T15:21:02.336Z,20.40
2019-05-22T15:23:31.259Z,20.30
2019-05-22T15:25:59.224Z,20.40
2019-05-22T15:28:27.285Z,20.50
2019-05-22T15:30:55.478Z,20.70
2019-05-22T15:33:23.483Z,20.80
2019-05-22T15:35:51.409Z,21.00
2019-05-22T15:38:19.948Z,21.10
2019-05-22T15:40:48.350Z,21.20
2019-05-22T15:43:16.724Z,21.20
2019-05-22T15:45:45.374Z,21.20
2019-05-22T15:48:15.259Z,21.20
2019-05-22T15:50:44.859Z,21.10
2019-05-22T15:53:15.204Z,21.00
2019-05-22T15:55:42.578Z,21.00
2019-05-22T15:58:12.051Z,21.00
2019-05-22T16:00:40.323Z,21.00
2019-05-22T16:03:09.779Z,21.00
2019-05-22T16:05:37.683Z,21.30
2019-05-22T16:08:06.243Z,21.10
2019-05-22T16:10:35.010Z,20.80
2019-05-22T16:13:03.272Z,20.80
2019-05-22T16:15:32.801Z,20.80
2019-05-22T16:18:11.012Z,20.90
2019-05-22T16:20:31.261Z,20.90
2019-05-22T16:22:59.192Z,20.90
2019-05-22T16:25:27.430Z,20.70
2019-05-22T16:27:55.434Z,20.50
2019-05-22T16:30:23.419Z,20.40
2019-05-22T16:32:51.632Z,20.20
2019-05-22T16:35:19.615Z,20.00
2019-05-22T16:37:47.601Z,19.80
2019-05-22T16:40:15.580Z,19.80
2019-05-22T16:42:43.480Z,19.80
2019-05-22T16:45:11.546Z,19.90
2019-05-22T16:47:40.346Z,20.00
2019-05-22T16:50:09.781Z,20.10
2019-05-22T16:52:37.802Z,20.10
2019-05-22T16:55:06.155Z,20.10
2019-05-22T16:57:34.108Z,20.10
2019-05-22T17:00:02.085Z,20.10
2019-05-22T17:02:30.083Z,20.00
2019-05-22T17:05:01.588Z,20.00
2019-05-22T17:07:28.408Z,19.90
2019-05-22T17:09:56.457Z,19.90
2019-05-22T17:12:25.554Z,19.80
2019-05-22T17:14:54.297Z,19.70
2019-05-22T17:17:22.297Z,19.50
2019-05-22T17:19:50.331Z,19.50
2019-05-22T17:22:18.777Z,19.40
2019-05-22T17:24:46.756Z,19.30
2019-05-22T17:27:15.276Z,19.30
2019-05-22T17:29:44.175Z,19.20
2019-05-22T17:32:12.611Z,19.10
2019-05-22T17:34:40.464Z,19.00
2019-05-22T17:37:11.801Z,19.00
2019-05-22T17:39:41.017Z,18.90
2019-05-22T17:42:09.046Z,18.90
2019-05-22T17:44:38.035Z,18.90
2019-05-22T17:47:06.733Z,18.80
2019-05-22T17:49:35.418Z,18.60
2019-05-22T17:52:05.252Z,18.60
2019-05-22T17:54:33.422Z,18.50
2019-05-22T17:57:02.809Z,18.40
2019-05-22T17:59:31.124Z,18.30
2019-05-22T18:01:59.295Z,18.10
2019-05-22T18:04:27.234Z,17.90
2019-05-22T18:06:55.443Z,17.70
2019-05-22T18:09:23.402Z,17.60
2019-05-22T18:11:51.699Z,17.50
2019-05-22T18:14:19.644Z,17.40
2019-05-22T18:16:47.583Z,17.20
2019-05-22T18:19:15.736Z,17.00
2019-05-22T18:21:43.686Z,16.90
2019-05-22T18:24:11.627Z,16.80
2019-05-22T18:26:39.590Z,16.70
2019-05-22T18:29:07.558Z,16.70
2019-05-22T18:31:35.591Z,16.60
2019-05-22T18:34:03.474Z,16.50
2019-05-22T18:36:31.366Z,16.40
2019-05-22T18:38:59.279Z,16.20
2019-05-22T18:41:27.152Z,16.10
2019-05-22T18:43:55.623Z,16.10
2019-05-22T18:46:23.672Z,15.90
2019-05-22T18:48:51.712Z,15.80
2019-05-22T18:51:19.690Z,15.70
2019-05-22T18:53:47.641Z,15.60
2019-05-22T18:56:15.680Z,15.50
2019-05-22T18:58:44.966Z,15.50
2019-05-22T19:01:16.206Z,15.30
2019-05-22T19:03:42.710Z,15.30
2019-05-22T19:06:10.617Z,15.20
2019-05-22T19:08:38.688Z,15.10
2019-05-22T19:11:06.691Z,15.10
2019-05-22T19:13:34.713Z,15.00
2019-05-22T19:16:02.711Z,14.80
2019-05-22T19:18:30.978Z,14.80
2019-05-22T19:20:58.958Z,14.60
2019-05-22T19:23:31.625Z,14.50
2019-05-22T19:25:59.527Z,14.50
2019-05-22T19:28:42.287Z,14.40
2019-05-22T19:30:57.144Z,14.30
2019-05-22T19:33:25.147Z,14.20
2019-05-22T19:35:53.153Z,14.20
2019-05-22T19:38:22.955Z,14.10
2019-05-22T19:40:51.164Z,14.10
2019-05-22T19:43:19.262Z,14.00
2019-05-22T19:45:47.303Z,13.90
2019-05-22T19:48:15.879Z,13.80
2019-05-22T19:50:43.900Z,13.70
2019-05-22T19:53:18.830Z,13.70
2019-05-22T19:55:41.974Z,13.60
2019-05-22T19:58:10.674Z,13.60
2019-05-22T20:00:38.684Z,13.50
2019-05-22T20:03:07.250Z,13.50
2019-05-22T20:05:36.747Z,13.40
2019-05-22T20:08:05.095Z,13.30
2019-05-22T20:10:33.513Z,13.30
2019-05-22T20:13:01.459Z,13.20
2019-05-22T20:15:29.798Z,13.20
2019-05-22T20:17:57.696Z,13.00
2019-05-22T20:20:25.709Z,13.00
2019-05-22T20:22:55.168Z,12.90
2019-05-22T20:25:23.462Z,12.80
2019-05-22T20:27:51.595Z,12.70
2019-05-22T20:30:20.526Z,12.70
2019-05-22T20:32:49.332Z,12.60
2019-05-22T20:35:17.673Z,12.50
2019-05-22T20:37:46.000Z,12.50
2019-05-22T20:40:14.412Z,12.40
2019-05-22T20:42:42.609Z,12.30
2019-05-22T20:45:10.778Z,12.20
2019-05-22T20:47:39.373Z,12.10
2019-05-22T20:50:08.781Z,12.10
2019-05-22T20:52:37.188Z,12.10
2019-05-22T20:55:06.730Z,12.10
2019-05-22T20:57:35.840Z,12.00
2019-05-22T21:00:04.266Z,11.90
2019-05-22T21:02:34.202Z,11.90
2019-05-22T21:05:03.565Z,11.80
2019-05-22T21:07:31.777Z,11.70
2019-05-22T21:09:59.897Z,11.70
2019-05-22T21:12:28.473Z,11.60
2019-05-22T21:14:56.351Z,11.40
2019-05-22T21:17:26.301Z,11.40
2019-05-22T21:19:54.175Z,11.30
2019-05-22T21:22:23.381Z,11.30
2019-05-22T21:24:51.698Z,11.20
2019-05-22T21:27:21.425Z,11.20
2019-05-22T21:29:49.379Z,11.10
2019-05-22T21:32:19.065Z,11.10
2019-05-22T21:34:47.246Z,11.00
2019-05-22T21:37:15.704Z,10.90
2019-05-22T21:39:43.996Z,10.90
2019-05-22T21:42:12.706Z,10.90
2019-05-22T21:44:41.037Z,10.80
2019-05-22T21:47:10.396Z,10.70
2019-05-22T21:49:38.868Z,10.70
2019-05-22T21:52:08.552Z,10.60
2019-05-22T21:54:36.503Z,10.50
2019-05-22T21:57:05.404Z,10.50
2019-05-22T21:59:33.371Z,10.40
2019-05-22T22:02:24.159Z,10.40
2019-05-22T22:04:53.242Z,10.40
2019-05-22T22:07:21.181Z,10.30
2019-05-22T22:09:49.162Z,10.20
2019-05-22T22:12:17.002Z,10.20
2019-05-22T22:14:45.334Z,10.20
2019-05-22T22:17:14.773Z,10.10
2019-05-22T22:19:42.802Z,10.10
2019-05-22T22:22:11.530Z,10.00
2019-05-22T22:24:39.903Z,10.00
2019-05-22T22:27:07.899Z,10.00
2019-05-22T22:29:36.509Z,10.00
2019-05-22T22:32:06.103Z,9.90
2019-05-22T22:34:34.354Z,9.80
2019-05-22T22:37:02.432Z,9.80
2019-05-22T22:39:30.370Z,9.80
2019-05-22T22:41:59.747Z,9.70
2019-05-22T22:44:28.583Z,9.70
2019-05-22T22:47:00.993Z,9.60
2019-05-22T22:49:28.959Z,9.60
2019-05-22T22:51:57.379Z,9.60
2019-05-22T22:54:25.934Z,9.50
2019-05-22T22:56:54.114Z,9.60
2019-05-22T22:59:22.487Z,9.50
2019-05-22T23:01:52.670Z,9.40
2019-05-22T23:04:21.397Z,9.40
2019-05-22T23:06:49.981Z,9.40
2019-05-22T23:09:19.616Z,9.30
2019-05-22T23:11:47.602Z,9.20
2019-05-22T23:14:16.190Z,9.20
2019-05-22T23:16:44.080Z,9.20
2019-05-22T23:19:13.239Z,9.20
2019-05-22T23:21:41.204Z,9.10
2019-05-22T23:24:10.733Z,9.10
2019-05-22T23:26:40.433Z,9.10
2019-05-22T23:29:08.612Z,9.00
2019-05-22T23:31:38.368Z,9.00
2019-05-22T23:34:06.437Z,9.00
2019-05-22T23:36:34.813Z,9.00
2019-05-22T23:39:04.185Z,9.00
2019-05-22T23:41:32.445Z,9.00
2019-05-22T23:44:00.799Z,8.90
2019-05-22T23:46:30.460Z,8.90
2019-05-22T23:48:59.236Z,8.80
2019-05-22T23:51:27.136Z,8.80
2019-05-22T23:53:55.048Z,8.80
2019-05-22T23:56:22.915Z,8.70
2019-05-22T23:58:53.210Z,8.70
